sensor_id;sensor_type;location;lat;lon;timestamp;P1;P2;P0
79317;PMS7003;68779;50.036;19.964;2023-05-07T00:11:15;22;21;13
79317;PMS7003;68779;50.036;19.964;2023-05-07T01:11:58;14;13;9
79317;PMS7003;68779;50.036;19.964;2023-05-07T01:42:12;16;15;10
79317;PMS7003;68779;50.036;19.964;2023-05-07T02:12:26;15;14;10
79317;PMS7003;68779;50.036;19.964;2023-05-07T03:13:00;8;7;4
79317;PMS7003;68779;50.036;19.964;2023-05-07T03:43:15;6;6;4
79317;PMS7003;68779;50.036;19.964;2023-05-07T04:13:29;2;2;2
79317;PMS7003;68779;50.036;19.964;2023-05-07T04:43:44;2;2;2
79317;PMS7003;68779;50.036;19.964;2023-05-07T05:13:59;3;3;3
79317;PMS7003;68779;50.036;19.964;2023-05-07T05:44:14;4;3;3
79317;PMS7003;68779;50.036;19.964;2023-05-07T06:14:28;2;2;0
79317;PMS7003;68779;50.036;19.964;2023-05-07T06:44:42;2;2;1
79317;PMS7003;68779;50.036;19.964;2023-05-07T07:14:56;0;0;0
79317;PMS7003;68779;50.036;19.964;2023-05-07T07:45:09;1;0;0
79317;PMS7003;68779;50.036;19.964;2023-05-07T08:15:23;1;1;1
79317;PMS7003;68779;50.036;19.964;2023-05-07T08:45:40;4;4;3
79317;PMS7003;68779;50.036;19.964;2023-05-07T09:15:55;6;5;4
79317;PMS7003;68779;50.036;19.964;2023-05-07T10:03:16;5;3;3
79317;PMS7003;68779;50.036;19.964;2023-05-07T10:33:33;3;3;3
79317;PMS7003;68779;50.036;19.964;2023-05-07T11:34:21;3;3;2
79317;PMS7003;68779;50.036;19.964;2023-05-07T12:04:41;4;3;2
79317;PMS7003;68779;50.036;19.964;2023-05-07T12:34:54;1;1;1
79317;PMS7003;68779;50.036;19.964;2023-05-07T13:05:10;2;2;2
79317;PMS7003;68779;50.036;19.964;2023-05-07T13:35:24;5;5;4
79317;PMS7003;68779;50.036;19.964;2023-05-07T14:05:36;3;3;3
79317;PMS7003;68779;50.036;19.964;2023-05-07T14:35:50;4;4;3
79317;PMS7003;68779;50.036;19.964;2023-05-07T15:36:37;6;6;4
79317;PMS7003;68779;50.036;19.964;2023-05-07T16:06:51;7;6;4
79317;PMS7003;68779;50.036;19.964;2023-05-07T16:37:08;5;5;4
79317;PMS7003;68779;50.036;19.964;2023-05-07T17:07:25;8;7;4
79317;PMS7003;68779;50.036;19.964;2023-05-07T17:37:48;12;11;8
79317;PMS7003;68779;50.036;19.964;2023-05-07T18:08:13;10;9;7
79317;PMS7003;68779;50.036;19.964;2023-05-07T18:38:29;10;9;6
79317;PMS7003;68779;50.036;19.964;2023-05-07T19:08:49;6;6;4
79317;PMS7003;68779;50.036;19.964;2023-05-07T19:39:03;8;7;5
79317;PMS7003;68779;50.036;19.964;2023-05-07T20:09:20;2;2;1
79317;PMS7003;68779;50.036;19.964;2023-05-07T20:39:34;6;5;4
79317;PMS7003;68779;50.036;19.964;2023-05-07T21:09:47;8;8;6
79317;PMS7003;68779;50.036;19.964;2023-05-07T21:40:02;6;6;4
79317;PMS7003;68779;50.036;19.964;2023-05-07T22:10:17;9;7;5
79317;PMS7003;68779;50.036;19.964;2023-05-07T22:40:41;8;7;6
79317;PMS7003;68779;50.036;19.964;2023-05-07T23:10:55;4;4;3
79317;PMS7003;68779;50.036;19.964;2023-05-07T23:41:11;9;7;6
